Time;durP1;ratioP1;P1;durP2;ratioP2;P2;SDS_P1;SDS_P2;PMS_P1;PMS_P2;Temp;Humidity;BMP_temperature;BMP_pressure;BME280_temperature;BME280_humidity;BME280_pressure;Samples;Min_cycle;Max_cycle;Signal;HPM_P1;HPM_P2
2023/12/29 00:00:02;;;;;;;1.60;1.60;;;17.00;69.50;;;;;;5056268;28;43622;-72
2023/12/29 00:02:32;;;;;;;1.50;1.50;;;17.00;69.50;;;;;;5053341;28;43372;-72
2023/12/29 00:05:00;;;;;;;1.47;1.47;;;17.10;69.30;;;;;;5054961;28;43618;-72
2023/12/29 00:07:28;;;;;;;1.60;1.60;;;17.30;69.00;;;;;;5052992;28;44655;-72
2023/12/29 00:09:56;;;;;;;1.43;1.43;;;17.30;68.60;;;;;;5066682;28;43578;-72
2023/12/29 00:12:24;;;;;;;1.60;1.60;;;17.30;68.60;;;;;;5064892;28;43427;-72
2023/12/29 00:14:52;;;;;;;1.47;1.37;;;17.30;68.70;;;;;;5055082;28;43892;-71
2023/12/29 00:17:22;;;;;;;1.60;1.60;;;17.20;68.70;;;;;;5059955;28;44133;-72
2023/12/29 00:19:50;;;;;;;1.60;1.50;;;17.30;68.70;;;;;;5052668;28;43372;-72
2023/12/29 00:22:18;;;;;;;1.43;1.43;;;17.20;68.80;;;;;;5051356;28;43651;-72
2023/12/29 00:24:46;;;;;;;1.50;1.50;;;17.20;69.00;;;;;;5049817;28;43603;-72
2023/12/29 00:27:14;;;;;;;1.60;1.60;;;17.20;69.10;;;;;;5050139;28;45104;-72
2023/12/29 00:29:42;;;;;;;1.60;1.60;;;17.10;69.10;;;;;;5056772;28;43396;-72
2023/12/29 00:32:11;;;;;;;1.43;1.43;;;17.10;69.30;;;;;;5055216;28;43419;-72
2023/12/29 00:34:40;;;;;;;1.50;1.50;;;17.10;69.20;;;;;;5052760;28;45391;-72
2023/12/29 00:37:08;;;;;;;1.50;1.50;;;17.10;69.30;;;;;;5050451;28;44532;-72
2023/12/29 00:39:39;;;;;;;1.50;1.50;;;17.10;69.40;;;;;;5057482;28;43421;-72
2023/12/29 00:42:08;;;;;;;1.40;1.40;;;17.10;69.40;;;;;;5054388;28;43531;-72
2023/12/29 00:44:37;;;;;;;1.57;1.57;;;17.00;69.40;;;;;;5049443;28;46548;-72
2023/12/29 00:47:05;;;;;;;1.50;1.50;;;17.00;69.40;;;;;;5057589;28;44743;-72
2023/12/29 00:49:33;;;;;;;1.40;1.40;;;17.00;69.60;;;;;;5053046;28;43996;-72
2023/12/29 00:52:03;;;;;;;1.67;1.57;;;17.10;69.50;;;;;;5051405;28;43514;-72
2023/12/29 00:54:31;;;;;;;1.53;1.53;;;17.00;69.50;;;;;;5052878;28;46147;-72
2023/12/29 00:57:00;;;;;;;1.40;1.40;;;17.10;69.60;;;;;;5054496;28;44686;-72
2023/12/29 00:59:27;;;;;;;1.57;1.57;;;17.00;69.60;;;;;;5050151;28;43659;-72
2023/12/29 01:01:55;;;;;;;1.30;1.30;;;17.00;69.60;;;;;;5052044;28;43396;-72
2023/12/29 01:04:24;;;;;;;1.43;1.43;;;17.00;69.70;;;;;;5049902;28;45673;-72
2023/12/29 01:06:53;;;;;;;1.30;1.30;;;17.00;69.60;;;;;;5053433;28;43942;-72
2023/12/29 01:09:23;;;;;;;1.50;1.50;;;17.20;69.50;;;;;;5058903;28;43443;-72
2023/12/29 01:11:51;;;;;;;1.37;1.37;;;17.30;69.00;;;;;;5053139;28;44004;-72
2023/12/29 01:14:19;;;;;;;1.60;1.60;;;17.30;69.30;;;;;;5056338;28;44049;-72
2023/12/29 01:16:47;;;;;;;1.80;1.50;;;17.30;68.70;;;;;;5052511;28;43489;-72
2023/12/29 01:19:15;;;;;;;1.53;1.53;;;17.30;69.50;;;;;;5051543;28;43394;-72
2023/12/29 01:21:44;;;;;;;1.40;1.40;;;17.30;68.90;;;;;;5054719;28;43356;-72
2023/12/29 01:24:12;;;;;;;1.40;1.40;;;17.20;68.70;;;;;;5056548;28;45407;-72
2023/12/29 01:26:44;;;;;;;1.20;1.20;;;17.20;68.90;;;;;;5053104;28;44800;-71
2023/12/29 01:29:12;;;;;;;1.30;1.30;;;17.20;69.00;;;;;;5058733;28;43449;-71
2023/12/29 01:31:40;;;;;;;1.40;1.40;;;17.20;69.90;;;;;;5053174;28;43468;-72
2023/12/29 01:34:08;;;;;;;1.47;1.47;;;17.10;69.30;;;;;;5056741;28;45966;-71
2023/12/29 01:36:37;;;;;;;1.30;1.30;;;17.10;69.40;;;;;;5062296;28;43507;-70
2023/12/29 01:39:05;;;;;;;1.20;1.20;;;17.10;69.30;;;;;;5053427;28;43439;-72
2023/12/29 01:41:34;;;;;;;1.33;1.33;;;17.10;69.40;;;;;;5055737;28;43573;-71
2023/12/29 01:44:21;;;;;;;1.20;1.20;;;17.10;69.40;;;;;;5057812;28;45965;-71
2023/12/29 01:46:51;;;;;;;1.20;1.20;;;17.10;69.50;;;;;;5062998;28;43412;-72
2023/12/29 01:49:20;;;;;;;1.30;1.30;;;17.00;69.50;;;;;;5054806;28;43420;-72
2023/12/29 01:51:50;;;;;;;1.30;1.30;;;17.00;69.50;;;;;;5054545;28;43477;-72
2023/12/29 01:54:19;;;;;;;1.30;1.30;;;17.00;69.40;;;;;;5049905;28;45409;-72
2023/12/29 01:56:47;;;;;;;1.40;1.40;;;17.00;69.50;;;;;;5054965;28;44846;-72
2023/12/29 01:59:17;;;;;;;1.27;1.27;;;17.00;69.50;;;;;;5049882;28;43481;-72
2023/12/29 02:01:54;;;;;;;1.47;1.47;;;17.00;69.60;;;;;;5050351;28;43428;-72
2023/12/29 02:04:22;;;;;;;1.33;1.33;;;17.00;69.60;;;;;;5052388;28;45923;-72
2023/12/29 02:06:50;;;;;;;1.23;1.23;;;17.00;69.60;;;;;;5053849;28;44791;-72
2023/12/29 02:09:19;;;;;;;1.47;1.47;;;17.00;69.60;;;;;;5066226;28;43975;-72
2023/12/29 02:11:47;;;;;;;1.30;1.30;;;17.10;69.40;;;;;;5055864;28;43967;-73
2023/12/29 02:14:15;;;;;;;1.47;1.47;;;17.20;69.00;;;;;;5054377;28;46727;-72
2023/12/29 02:16:48;;;;;;;1.43;1.43;;;17.30;68.70;;;;;;5055387;28;43606;-72
2023/12/29 02:19:25;;;;;;;1.43;1.43;;;17.20;68.70;;;;;;5051649;28;43407;-72
2023/12/29 02:21:55;;;;;;;1.50;1.50;;;17.20;68.80;;;;;;5054570;28;43970;-73
2023/12/29 02:24:23;;;;;;;1.30;1.30;;;17.20;69.00;;;;;;5058620;28;46091;-72
2023/12/29 02:26:56;;;;;;;1.40;1.40;;;17.20;68.90;;;;;;5057966;28;45168;-72
2023/12/29 02:29:24;;;;;;;1.53;1.53;;;17.20;69.00;;;;;;5058827;28;43539;-72
2023/12/29 02:31:53;;;;;;;1.30;1.30;;;17.20;69.20;;;;;;5055935;28;43526;-72
2023/12/29 02:34:21;;;;;;;1.30;1.30;;;17.10;69.20;;;;;;5059753;28;45722;-73
2023/12/29 02:36:50;;;;;;;1.37;1.37;;;17.10;69.30;;;;;;5059763;28;44751;-72
2023/12/29 02:39:18;;;;;;;1.30;1.30;;;17.10;69.30;;;;;;5058293;28;43483;-72
2023/12/29 02:41:46;;;;;;;1.37;1.37;;;17.10;69.30;;;;;;5058666;28;43500;-72
2023/12/29 02:44:16;;;;;;;1.20;1.20;;;17.10;69.40;;;;;;5060938;28;43680;-73
2023/12/29 02:46:44;;;;;;;1.10;1.10;;;17.10;69.50;;;;;;5076547;28;44744;-69
2023/12/29 02:49:12;;;;;;;1.20;1.20;;;17.00;69.40;;;;;;5086368;28;43343;-70
2023/12/29 02:51:41;;;;;;;1.40;1.40;;;17.00;69.40;;;;;;5082353;28;43455;-70
2023/12/29 02:54:09;;;;;;;1.20;1.20;;;17.00;69.50;;;;;;5079959;28;43610;-70
2023/12/29 02:56:37;;;;;;;1.27;1.27;;;17.00;69.40;;;;;;5085020;28;45043;-70
2023/12/29 02:59:05;;;;;;;1.30;1.30;;;17.00;69.40;;;;;;5082676;28;43348;-70
2023/12/29 03:01:36;;;;;;;1.23;1.23;;;17.00;69.40;;;;;;5079483;28;43463;-70
2023/12/29 03:04:04;;;;;;;1.47;1.47;;;17.00;69.40;;;;;;5074588;28;46057;-70
2023/12/29 03:06:32;;;;;;;1.37;1.37;;;17.00;69.50;;;;;;5078730;28;43391;-70
2023/12/29 03:09:01;;;;;;;1.50;1.50;;;17.00;69.60;;;;;;5085588;28;43499;-70
2023/12/29 03:11:29;;;;;;;1.47;1.47;;;17.00;69.50;;;;;;5083268;28;43443;-70
2023/12/29 03:13:58;;;;;;;1.30;1.30;;;17.10;69.50;;;;;;5084678;28;46161;-70
2023/12/29 03:16:26;;;;;;;1.40;1.40;;;17.20;69.20;;;;;;5078747;28;45052;-70
2023/12/29 03:18:55;;;;;;;1.50;1.50;;;17.30;68.80;;;;;;5073307;28;43383;-70
2023/12/29 03:21:24;;;;;;;1.47;1.40;;;17.30;68.40;;;;;;5074324;28;43535;-70
2023/12/29 03:23:52;;;;;;;1.33;1.33;;;17.30;68.50;;;;;;5074502;28;45908;-70
2023/12/29 03:26:20;;;;;;;1.40;1.40;;;17.20;68.50;;;;;;5084304;28;43476;-70
2023/12/29 03:28:48;;;;;;;1.30;1.30;;;17.30;68.60;;;;;;5083850;28;43438;-70
2023/12/29 03:31:16;;;;;;;1.40;1.40;;;17.30;68.70;;;;;;5080058;28;43518;-70
2023/12/29 03:33:44;;;;;;;1.20;1.20;;;17.20;68.70;;;;;;5075846;28;43884;-70
2023/12/29 03:36:14;;;;;;;1.37;1.37;;;17.20;68.90;;;;;;5076785;28;44330;-70
2023/12/29 03:38:43;;;;;;;1.10;1.10;;;17.10;69.00;;;;;;5079196;28;43356;-70
2023/12/29 03:41:12;;;;;;;1.20;1.20;;;17.10;69.10;;;;;;5083426;28;43443;-70
2023/12/29 03:43:40;;;;;;;1.50;1.40;;;17.10;69.10;;;;;;5074394;28;45718;-70
2023/12/29 03:46:17;;;;;;;1.40;1.40;;;17.10;69.10;;;;;;5079209;28;45575;-69
2023/12/29 03:48:45;;;;;;;1.30;1.30;;;17.10;69.20;;;;;;5077383;28;43500;-68
2023/12/29 03:51:15;;;;;;;1.27;1.27;;;17.00;69.20;;;;;;5081241;28;43597;-68
2023/12/29 03:53:44;;;;;;;1.20;1.20;;;17.00;69.30;;;;;;5075268;28;43682;-69
2023/12/29 03:56:18;;;;;;;1.43;1.43;;;17.00;69.40;;;;;;5075630;28;45060;-69
2023/12/29 03:58:46;;;;;;;1.40;1.40;;;17.00;69.40;;;;;;5081194;28;43372;-69
2023/12/29 04:01:15;;;;;;;1.30;1.30;;;17.00;69.30;;;;;;5076465;28;43638;-68
2023/12/29 04:03:44;;;;;;;1.27;1.27;;;17.10;69.10;;;;;;5076025;28;46068;-68
2023/12/29 04:06:14;;;;;;;1.40;1.40;;;17.10;68.80;;;;;;5062113;28;43527;-70
2023/12/29 04:08:43;;;;;;;1.30;1.30;;;17.10;68.90;;;;;;5055658;28;43400;-71
2023/12/29 04:11:12;;;;;;;1.10;1.10;;;17.10;69.00;;;;;;5052373;28;43510;-70
2023/12/29 04:13:40;;;;;;;1.70;1.60;;;17.10;69.10;;;;;;5054995;28;44043;-70
2023/12/29 04:16:08;;;;;;;1.40;1.30;;;17.10;69.10;;;;;;5055285;28;44935;-71
2023/12/29 04:18:36;;;;;;;1.33;1.33;;;17.10;69.10;;;;;;5057657;28;43387;-76
2023/12/29 04:21:05;;;;;;;1.30;1.30;;;17.10;69.20;;;;;;5052310;28;43406;-70
2023/12/29 04:23:34;;;;;;;1.40;1.40;;;17.10;69.20;;;;;;5055976;28;46357;-72
2023/12/29 04:26:02;;;;;;;1.20;1.20;;;17.00;69.30;;;;;;5052081;28;44951;-72
2023/12/29 04:28:30;;;;;;;1.43;1.43;;;17.00;69.30;;;;;;5059885;28;43411;-71
2023/12/29 04:30:58;;;;;;;2.77;1.67;;;17.00;69.30;;;;;;5056701;28;43390;-71
2023/12/29 04:33:27;;;;;;;2.00;1.87;;;17.10;69.40;;;;;;5052611;28;45684;-71
2023/12/29 04:35:55;;;;;;;3.37;2.50;;;17.10;69.00;;;;;;5054894;28;43373;-72
2023/12/29 04:38:23;;;;;;;2.23;2.03;;;17.20;69.00;;;;;;5050408;28;43427;-72
2023/12/29 04:40:52;;;;;;;1.90;1.80;;;17.20;69.00;;;;;;5048488;28;44052;-71
2023/12/29 04:43:22;;;;;;;2.60;2.40;;;17.20;69.10;;;;;;5057876;28;43841;-71
2023/12/29 04:45:50;;;;;;;4.03;2.57;;;17.10;69.10;;;;;;5054049;28;43936;-71
2023/12/29 04:48:18;;;;;;;2.60;2.40;;;17.10;69.00;;;;;;5058285;28;43396;-72
2023/12/29 04:50:46;;;;;;;2.50;2.30;;;17.10;69.10;;;;;;5055907;28;43430;-71
2023/12/29 04:53:14;;;;;;;2.73;2.53;;;17.10;69.10;;;;;;5048149;28;45821;-72
2023/12/29 04:55:42;;;;;;;4.27;2.93;;;17.10;69.20;;;;;;5050644;28;43364;-71
2023/12/29 04:58:11;;;;;;;6.80;3.83;;;17.10;69.30;;;;;;5051699;28;43383;-70
2023/12/29 05:00:39;;;;;;;5.17;3.60;;;17.10;69.40;;;;;;5059449;28;43419;-71
2023/12/29 05:03:07;;;;;;;4.53;3.20;;;17.10;69.20;;;;;;5054095;28;43808;-71
2023/12/29 05:05:39;;;;;;;5.17;2.90;;;17.10;69.30;;;;;;5055214;28;44702;-71
2023/12/29 05:08:07;;;;;;;4.13;3.17;;;17.10;69.40;;;;;;5051219;28;44009;-71
2023/12/29 05:10:38;;;;;;;4.60;3.53;;;17.10;69.40;;;;;;5060755;28;43857;-71
2023/12/29 05:13:06;;;;;;;4.33;3.10;;;17.10;69.40;;;;;;5059616;28;45534;-72
2023/12/29 05:15:37;;;;;;;4.10;3.60;;;17.10;69.50;;;;;;5053237;28;44774;-71
2023/12/29 05:18:05;;;;;;;4.60;3.63;;;17.00;69.40;;;;;;5058785;28;43933;-71
2023/12/29 05:20:34;;;;;;;5.07;3.53;;;17.10;69.30;;;;;;5056733;28;43539;-74
2023/12/29 05:23:02;;;;;;;4.67;3.27;;;17.20;69.00;;;;;;5055197;28;45735;-71
2023/12/29 05:25:30;;;;;;;5.53;3.80;;;17.30;68.70;;;;;;5056388;28;44030;-71
2023/12/29 05:27:58;;;;;;;3.77;3.37;;;17.20;68.50;;;;;;5057344;28;43518;-71
2023/12/29 05:30:27;;;;;;;3.93;3.20;;;17.20;68.70;;;;;;5053791;28;43495;-71
2023/12/29 05:32:57;;;;;;;5.23;3.57;;;17.20;68.90;;;;;;5060240;28;44301;-71
2023/12/29 05:35:25;;;;;;;4.33;3.53;;;17.20;68.80;;;;;;5064496;28;43438;-71
2023/12/29 05:37:53;;;;;;;2.97;2.77;;;17.20;68.80;;;;;;5058204;28;43819;-71
2023/12/29 05:40:21;;;;;;;3.20;2.90;;;17.20;69.00;;;;;;5055386;28;43591;-71
2023/12/29 05:42:49;;;;;;;3.33;3.03;;;17.20;69.10;;;;;;5056563;28;43770;-71
2023/12/29 05:45:17;;;;;;;4.07;3.27;;;17.10;69.10;;;;;;5055709;28;43377;-71
2023/12/29 05:47:45;;;;;;;4.27;3.20;;;17.10;69.20;;;;;;5065951;28;43439;-71
2023/12/29 05:50:15;;;;;;;3.33;3.10;;;17.10;69.10;;;;;;5058091;28;43463;-71
2023/12/29 05:52:43;;;;;;;3.40;3.10;;;17.10;69.10;;;;;;5053747;28;43902;-71
2023/12/29 05:55:11;;;;;;;3.03;2.80;;;17.10;69.20;;;;;;5055954;28;43998;-71
2023/12/29 05:57:40;;;;;;;3.57;2.80;;;17.10;69.30;;;;;;5063343;28;43780;-71
2023/12/29 06:00:14;;;;;;;3.10;2.77;;;17.10;69.40;;;;;;5056444;28;43506;-71
2023/12/29 06:02:42;;;;;;;3.97;3.20;;;17.00;69.30;;;;;;5055328;28;43850;-71
2023/12/29 06:05:11;;;;;;;3.23;3.00;;;17.00;69.30;;;;;;5056370;28;43339;-71
2023/12/29 06:07:41;;;;;;;3.50;3.13;;;17.10;69.20;;;;;;5066102;28;43449;-71
2023/12/29 06:10:10;;;;;;;4.30;3.23;;;17.20;68.80;;;;;;5066400;28;43397;-72
2023/12/29 06:12:38;;;;;;;3.20;2.90;;;17.20;68.50;;;;;;5058703;28;43802;-71
2023/12/29 06:15:07;;;;;;;3.73;2.97;;;17.20;68.60;;;;;;5060012;28;43360;-70
2023/12/29 06:17:36;;;;;;;3.80;3.20;;;17.20;68.70;;;;;;5083754;28;43406;-70
2023/12/29 06:20:06;;;;;;;3.63;3.10;;;17.20;68.80;;;;;;5079908;28;43451;-70
2023/12/29 06:22:34;;;;;;;2.87;2.70;;;17.20;68.70;;;;;;5080878;28;43583;-70
2023/12/29 06:25:04;;;;;;;4.83;3.43;;;17.20;68.80;;;;;;5080108;28;43374;-70
2023/12/29 06:27:37;;;;;;;3.30;3.00;;;17.20;69.00;;;;;;5082797;28;43419;-70
2023/12/29 06:30:06;;;;;;;3.27;2.97;;;17.20;69.10;;;;;;5079027;28;43425;-70
2023/12/29 06:32:34;;;;;;;3.43;3.13;;;17.20;69.20;;;;;;5074716;28;43888;-70
2023/12/29 06:35:03;;;;;;;3.80;3.50;;;17.10;69.10;;;;;;5076202;28;43383;-70
2023/12/29 06:37:32;;;;;;;3.00;2.70;;;17.10;69.00;;;;;;5079827;28;43348;-70
2023/12/29 06:40:02;;;;;;;3.13;2.93;;;17.10;69.10;;;;;;5081591;28;43658;-70
2023/12/29 06:42:31;;;;;;;2.70;2.50;;;17.10;69.10;;;;;;5080678;28;45876;-70
2023/12/29 06:44:59;;;;;;;2.63;2.43;;;17.10;69.10;;;;;;5077978;28;44760;-70
2023/12/29 06:47:28;;;;;;;4.37;2.97;;;17.10;69.30;;;;;;5081069;28;43447;-70
2023/12/29 06:49:57;;;;;;;3.23;2.90;;;17.10;69.20;;;;;;5084053;28;43434;-70
2023/12/29 06:52:25;;;;;;;3.20;3.00;;;17.10;69.20;;;;;;5080152;28;43857;-70
2023/12/29 06:54:53;;;;;;;3.73;3.13;;;17.20;69.10;;;;;;5084602;28;43394;-70
2023/12/29 06:57:21;;;;;;;4.07;3.20;;;17.20;68.70;;;;;;5082883;28;43486;-70
2023/12/29 06:59:51;;;;;;;2.90;2.70;;;17.20;68.50;;;;;;5075578;28;43531;-70
2023/12/29 07:02:19;;;;;;;2.70;2.50;;;17.20;68.60;;;;;;5080172;28;45980;-70
2023/12/29 07:04:47;;;;;;;2.80;2.60;;;17.20;68.70;;;;;;5084588;28;43370;-70
2023/12/29 07:07:16;;;;;;;3.57;2.90;;;17.20;68.80;;;;;;5077158;28;43423;-70
2023/12/29 07:09:44;;;;;;;3.10;2.90;;;17.20;68.70;;;;;;5091470;28;43547;-70
2023/12/29 07:12:12;;;;;;;2.90;2.70;;;17.20;68.80;;;;;;5078279;28;43765;-70
2023/12/29 07:14:42;;;;;;;2.93;2.73;;;17.20;68.90;;;;;;5081207;28;43331;-70
2023/12/29 07:17:11;;;;;;;2.53;2.43;;;17.10;68.90;;;;;;5077946;28;43461;-70
2023/12/29 07:19:39;;;;;;;3.23;2.83;;;17.10;69.00;;;;;;5078644;28;43416;-70
2023/12/29 07:22:08;;;;;;;2.80;2.53;;;17.10;69.10;;;;;;5084798;28;45704;-70
2023/12/29 07:24:36;;;;;;;2.97;2.77;;;17.10;69.00;;;;;;5076029;28;43541;-72
2023/12/29 07:27:05;;;;;;;2.97;2.77;;;17.20;69.00;;;;;;5052106;28;43465;-71
2023/12/29 07:29:33;;;;;;;2.80;2.60;;;17.20;68.60;;;;;;5054574;28;43452;-72
2023/12/29 07:32:01;;;;;;;2.80;2.60;;;17.20;68.40;;;;;;5056223;28;43620;-72
2023/12/29 07:34:31;;;;;;;2.50;2.40;;;17.30;68.70;;;;;;5056329;28;43518;-72
2023/12/29 07:36:59;;;;;;;2.97;2.60;;;17.20;68.70;;;;;;5054025;28;43861;-72
2023/12/29 07:39:27;;;;;;;2.70;2.50;;;17.20;68.80;;;;;;5058116;28;43355;-72
2023/12/29 07:41:55;;;;;;;3.00;2.80;;;17.20;68.70;;;;;;5060425;28;43937;-72
2023/12/29 07:44:31;;;;;;;2.83;2.63;;;17.20;68.80;;;;;;5054506;28;43518;-72
2023/12/29 07:47:01;;;;;;;2.53;2.43;;;17.20;69.00;;;;;;5054421;28;43455;-72
2023/12/29 07:49:31;;;;;;;2.47;2.37;;;17.10;69.00;;;;;;5057509;28;43482;-72
2023/12/29 07:51:59;;;;;;;3.07;2.53;;;17.10;69.10;;;;;;5053051;28;44876;-72
2023/12/29 07:54:27;;;;;;;2.50;2.30;;;17.10;69.10;;;;;;5052301;28;44885;-72
2023/12/29 07:56:55;;;;;;;2.47;2.27;;;17.10;69.00;;;;;;5050485;28;43422;-72
2023/12/29 07:59:23;;;;;;;2.57;2.40;;;17.10;69.00;;;;;;5055342;28;43893;-72
2023/12/29 08:01:51;;;;;;;3.17;2.43;;;17.10;69.10;;;;;;5055798;28;43929;-72
2023/12/29 08:04:20;;;;;;;2.47;2.30;;;17.10;69.20;;;;;;5056351;28;43314;-72
2023/12/29 08:06:49;;;;;;;2.93;2.77;;;17.10;69.20;;;;;;5054999;28;43375;-72
2023/12/29 08:09:17;;;;;;;3.17;2.53;;;17.10;69.20;;;;;;5063385;28;43493;-72
2023/12/29 08:11:45;;;;;;;2.70;2.50;;;17.10;69.10;;;;;;5054725;28;44547;-72
2023/12/29 08:14:13;;;;;;;2.33;2.23;;;17.20;69.10;;;;;;5062680;28;43447;-72
2023/12/29 08:16:41;;;;;;;2.60;2.50;;;17.20;68.70;;;;;;5059583;28;43420;-72
2023/12/29 08:19:10;;;;;;;2.80;2.60;;;17.30;68.30;;;;;;5054747;28;43409;-72
2023/12/29 08:21:39;;;;;;;2.37;2.20;;;17.30;68.40;;;;;;5055877;28;43872;-72
2023/12/29 08:24:08;;;;;;;2.53;2.37;;;17.30;68.60;;;;;;5052101;28;43523;-72
2023/12/29 08:26:44;;;;;;;2.77;2.57;;;17.20;68.50;;;;;;5055582;28;43375;-72
2023/12/29 08:29:12;;;;;;;3.60;2.70;;;17.20;68.50;;;;;;5056468;28;43465;-72
2023/12/29 08:31:40;;;;;;;2.60;2.40;;;17.20;68.70;;;;;;5054320;28;43591;-72
2023/12/29 08:34:09;;;;;;;2.33;2.23;;;17.20;68.80;;;;;;5051636;28;43367;-72
2023/12/29 08:36:37;;;;;;;2.50;2.40;;;17.20;68.90;;;;;;5075486;28;43438;-70
2023/12/29 08:39:05;;;;;;;2.47;2.37;;;17.10;68.90;;;;;;5080913;28;43842;-70
2023/12/29 08:41:35;;;;;;;2.27;2.17;;;17.10;69.00;;;;;;5081971;28;44031;-70
2023/12/29 08:44:03;;;;;;;2.63;2.43;;;17.10;68.90;;;;;;5075448;28;45106;-70
2023/12/29 08:46:33;;;;;;;2.17;1.97;;;17.10;69.00;;;;;;5074456;28;43446;-70
2023/12/29 08:49:01;;;;;;;2.40;2.30;;;17.10;69.10;;;;;;5075427;28;43422;-70
2023/12/29 08:51:30;;;;;;;2.50;2.40;;;17.10;69.10;;;;;;5078479;28;43611;-70
2023/12/29 08:53:58;;;;;;;2.60;2.07;;;17.10;69.20;;;;;;5078034;28;44339;-69
2023/12/29 08:56:26;;;;;;;2.93;2.73;;;17.10;69.30;;;;;;5077812;28;43345;-70
2023/12/29 08:58:57;;;;;;;2.40;2.30;;;17.00;69.10;;;;;;5079082;28;43407;-70
2023/12/29 09:01:25;;;;;;;2.40;2.30;;;17.10;69.00;;;;;;5077278;28;43787;-70
2023/12/29 09:03:55;;;;;;;2.73;2.40;;;17.20;68.80;;;;;;5079593;28;43339;-71
2023/12/29 09:06:23;;;;;;;2.53;2.43;;;17.30;68.50;;;;;;5079733;28;43431;-71
2023/12/29 09:08:52;;;;;;;2.13;2.03;;;17.30;68.50;;;;;;5081270;28;43352;-71
2023/12/29 09:11:20;;;;;;;2.07;1.97;;;17.20;68.60;;;;;;5075036;28;43633;-71
2023/12/29 09:13:47;;;;;;;2.40;2.30;;;17.20;68.70;;;;;;5080655;28;43327;-71
2023/12/29 09:16:17;;;;;;;2.10;2.00;;;17.20;68.60;;;;;;5077074;28;43393;-70
2023/12/29 09:18:45;;;;;;;2.00;1.90;;;17.20;68.70;;;;;;5083654;28;43475;-70
2023/12/29 09:21:13;;;;;;;2.30;2.20;;;17.20;68.80;;;;;;5075209;28;43696;-71
2023/12/29 09:23:41;;;;;;;2.17;2.07;;;17.20;69.60;;;;;;5073960;28;43377;-70
2023/12/29 09:26:10;;;;;;;2.20;2.10;;;17.10;68.90;;;;;;5072435;28;43378;-70
2023/12/29 09:28:38;;;;;;;2.20;2.10;;;17.10;69.80;;;;;;5077802;28;43444;-70
2023/12/29 09:31:06;;;;;;;2.13;2.03;;;17.10;69.00;;;;;;5083231;28;43598;-71
2023/12/29 09:33:36;;;;;;;2.60;2.30;;;17.10;69.00;;;;;;5074153;28;43393;-70
2023/12/29 09:36:05;;;;;;;2.10;2.00;;;17.10;69.10;;;;;;5073038;28;43423;-70
2023/12/29 09:38:34;;;;;;;2.10;2.00;;;17.10;69.10;;;;;;5079947;28;43630;-70
2023/12/29 09:41:05;;;;;;;2.20;2.10;;;17.10;69.20;;;;;;5080591;28;43608;-70
2023/12/29 09:43:33;;;;;;;1.90;1.80;;;17.10;69.30;;;;;;5077285;28;43349;-70
2023/12/29 09:46:02;;;;;;;2.00;1.97;;;17.10;69.20;;;;;;5062325;28;43428;-71
2023/12/29 09:48:31;;;;;;;2.10;2.00;;;17.10;69.10;;;;;;5058737;28;43369;-71
2023/12/29 09:51:00;;;;;;;2.20;2.10;;;17.20;68.80;;;;;;5054246;28;43863;-71
2023/12/29 09:53:29;;;;;;;2.37;2.20;;;17.30;68.50;;;;;;5056432;28;45050;-71
2023/12/29 09:55:58;;;;;;;2.33;2.23;;;17.30;68.40;;;;;;5054031;28;43391;-71
2023/12/29 09:58:26;;;;;;;2.10;2.00;;;17.30;68.60;;;;;;5055998;28;44030;-71
2023/12/29 10:00:54;;;;;;;1.93;1.83;;;17.20;68.60;;;;;;5058580;28;43706;-71
2023/12/29 10:03:22;;;;;;;1.80;1.80;;;17.20;68.50;;;;;;5057214;28;43464;-71
2023/12/29 10:05:51;;;;;;;1.73;1.73;;;17.20;68.70;;;;;;5051006;28;43373;-71
2023/12/29 10:08:21;;;;;;;2.00;1.93;;;17.20;68.70;;;;;;5060426;28;43580;-71
2023/12/29 10:10:49;;;;;;;1.70;1.70;;;17.20;69.00;;;;;;5057458;27;45605;-71
2023/12/29 10:13:17;;;;;;;2.57;2.37;;;17.20;69.00;;;;;;5058033;28;43450;-71
2023/12/29 10:15:50;;;;;;;2.23;2.13;;;17.10;69.10;;;;;;5050777;28;43371;-71
2023/12/29 10:18:22;;;;;;;2.27;2.17;;;17.10;68.90;;;;;;5061411;28;43929;-71
2023/12/29 10:20:58;;;;;;;1.83;1.83;;;17.10;68.90;;;;;;5057459;28;43608;-71
2023/12/29 10:23:29;;;;;;;1.90;1.90;;;17.10;69.10;;;;;;5052239;28;43796;-71
2023/12/29 10:25:58;;;;;;;1.57;1.57;;;17.10;69.10;;;;;;5054950;28;43455;-71
2023/12/29 10:28:28;;;;;;;1.63;1.63;;;17.10;69.20;;;;;;5053001;28;43905;-71
2023/12/29 10:30:56;;;;;;;1.93;1.83;;;17.10;69.20;;;;;;5057421;28;43940;-71
2023/12/29 10:33:25;;;;;;;1.70;1.70;;;17.00;69.10;;;;;;5058442;28;43380;-71
2023/12/29 10:36:02;;;;;;;1.77;1.77;;;17.00;69.00;;;;;;5057654;28;43422;-71
2023/12/29 10:38:32;;;;;;;2.20;2.10;;;17.10;69.10;;;;;;5061399;28;43522;-70
2023/12/29 10:41:13;;;;;;;1.50;1.50;;;17.10;69.20;;;;;;5058858;28;43627;-70
2023/12/29 10:43:42;;;;;;;1.83;1.80;;;17.10;69.30;;;;;;5055776;28;43418;-70
2023/12/29 10:46:11;;;;;;;1.80;1.70;;;17.10;69.40;;;;;;5051805;28;43459;-70
2023/12/29 10:48:39;;;;;;;1.70;1.70;;;17.10;69.30;;;;;;5059547;28;43418;-71
2023/12/29 10:51:09;;;;;;;1.63;1.60;;;17.10;69.10;;;;;;5054101;28;43752;-71
2023/12/29 10:53:39;;;;;;;1.70;1.60;;;17.10;68.80;;;;;;5064018;28;43443;-70
2023/12/29 10:56:19;;;;;;;1.67;1.67;;;17.20;68.50;;;;;;5051624;28;43333;-71
2023/12/29 10:58:48;;;;;;;2.00;1.90;;;17.30;68.20;;;;;;5055260;28;43414;-71
2023/12/29 11:01:19;;;;;;;1.70;1.70;;;17.30;68.20;;;;;;5050648;28;43962;-71
2023/12/29 11:03:57;;;;;;;1.60;1.60;;;17.30;68.30;;;;;;5058162;28;43417;-71
2023/12/29 11:06:26;;;;;;;1.80;1.80;;;17.30;68.40;;;;;;5072604;28;43416;-69
2023/12/29 11:08:56;;;;;;;2.40;2.20;;;17.30;68.20;;;;;;5082584;28;43503;-68
2023/12/29 11:11:24;;;;;;;2.10;2.00;;;17.30;68.50;;;;;;5076180;28;44138;-68
2023/12/29 11:13:54;;;;;;;2.13;2.03;;;17.20;68.60;;;;;;5086835;28;43381;-68
2023/12/29 11:16:22;;;;;;;2.00;1.90;;;17.20;68.70;;;;;;5075755;28;43386;-68
2023/12/29 11:18:51;;;;;;;2.00;1.90;;;17.20;68.90;;;;;;5081169;28;44378;-69
2023/12/29 11:21:20;;;;;;;2.10;2.00;;;17.20;69.00;;;;;;5079802;28;43786;-69
2023/12/29 11:23:48;;;;;;;2.00;1.90;;;17.20;69.00;;;;;;5074327;28;43496;-69
2023/12/29 11:26:17;;;;;;;1.90;1.80;;;17.20;69.00;;;;;;5084280;28;43415;-69
2023/12/29 11:28:48;;;;;;;2.13;2.03;;;17.20;69.10;;;;;;5077444;28;43366;-69
2023/12/29 11:31:16;;;;;;;2.20;2.10;;;17.10;69.00;;;;;;5077363;28;43846;-69
2023/12/29 11:33:47;;;;;;;1.80;1.80;;;17.10;69.10;;;;;;5074568;28;43395;-68
2023/12/29 11:36:17;;;;;;;1.90;1.90;;;17.10;69.10;;;;;;5081129;28;43424;-68
2023/12/29 11:39:02;;;;;;;2.00;1.90;;;17.10;68.90;;;;;;5079025;28;43450;-68
2023/12/29 11:41:37;;;;;;;2.40;2.30;;;17.10;69.00;;;;;;5081783;28;43923;-69
2023/12/29 11:44:05;;;;;;;1.70;1.70;;;17.10;69.10;;;;;;5076937;28;43444;-69
2023/12/29 11:46:34;;;;;;;1.60;1.60;;;17.10;69.10;;;;;;5078872;28;43410;-69
2023/12/29 11:49:03;;;;;;;1.93;1.80;;;17.10;69.10;;;;;;5074327;28;43567;-69
2023/12/29 11:51:33;;;;;;;1.90;1.90;;;17.10;69.10;;;;;;5081138;28;43778;-70
2023/12/29 11:54:02;;;;;;;2.13;2.03;;;17.10;69.00;;;;;;5080421;28;43410;-70
2023/12/29 11:56:35;;;;;;;1.40;1.40;;;17.20;68.80;;;;;;5076454;28;43468;-69
2023/12/29 11:59:19;;;;;;;1.70;1.60;;;17.30;68.50;;;;;;5083477;28;43431;-70
2023/12/29 12:01:48;;;;;;;1.90;1.90;;;17.40;68.20;;;;;;5074577;28;43599;-69
2023/12/29 12:04:37;;;;;;;1.70;1.60;;;17.40;68.30;;;;;;5073402;28;44805;-69
2023/12/29 12:07:06;;;;;;;1.93;1.83;;;17.30;68.30;;;;;;5077938;28;43347;-69
2023/12/29 12:09:34;;;;;;;1.90;1.80;;;17.30;68.30;;;;;;5089349;28;43349;-68
2023/12/29 12:12:04;;;;;;;1.50;1.50;;;17.30;68.30;;;;;;5077047;28;43665;-68
2023/12/29 12:14:50;;;;;;;1.70;1.60;;;17.30;68.50;;;;;;5080076;28;44632;-69
2023/12/29 12:17:31;;;;;;;1.70;1.70;;;17.30;68.70;;;;;;5055122;28;44016;-70
2023/12/29 12:20:03;;;;;;;1.50;1.50;;;17.20;68.70;;;;;;5054157;28;43581;-70
2023/12/29 12:22:32;;;;;;;1.60;1.60;;;17.20;68.80;;;;;;5060084;28;43797;-70
2023/12/29 12:25:06;;;;;;;2.00;1.90;;;17.20;68.80;;;;;;5055127;28;44216;-71
2023/12/29 12:27:39;;;;;;;1.50;1.50;;;17.20;68.70;;;;;;5053166;28;44073;-70
2023/12/29 12:30:09;;;;;;;1.77;1.70;;;17.20;68.90;;;;;;5051574;28;43426;-71
2023/12/29 12:32:38;;;;;;;1.70;1.70;;;17.20;69.00;;;;;;5048652;28;46074;-70
2023/12/29 12:35:17;;;;;;;1.70;1.60;;;17.20;69.00;;;;;;5058216;28;43926;-71
2023/12/29 12:37:48;;;;;;;1.90;1.80;;;17.20;69.00;;;;;;5048559;28;43426;-70
2023/12/29 12:40:26;;;;;;;1.63;1.63;;;17.20;69.00;;;;;;5056817;28;43494;-71
2023/12/29 12:42:56;;;;;;;1.60;1.60;;;17.20;68.80;;;;;;5052632;28;44171;-71
2023/12/29 12:45:24;;;;;;;1.50;1.50;;;17.40;68.60;;;;;;5058012;28;43450;-71
2023/12/29 12:47:53;;;;;;;1.70;1.60;;;17.40;68.30;;;;;;5053715;28;43428;-70
2023/12/29 12:50:22;;;;;;;1.60;1.60;;;17.40;68.40;;;;;;5056847;28;43947;-71
2023/12/29 12:52:50;;;;;;;1.80;1.80;;;17.30;69.10;;;;;;5051080;28;46240;-71
2023/12/29 12:55:18;;;;;;;1.80;1.80;;;17.30;68.60;;;;;;5050424;28;45168;-70
2023/12/29 12:57:46;;;;;;;1.70;1.60;;;17.30;68.50;;;;;;5054354;28;43469;-70